Time;durP1;ratioP1;P1;durP2;ratioP2;P2;SDS_P1;SDS_P2;PMS_P1;PMS_P2;Temp;Humidity;BMP_temperature;BMP_pressure;BME280_temperature;BME280_humidity;BME280_pressure;Samples;Min_cycle;Max_cycle;Signal;HPM_P1;HPM_P2
2021/08/27 00:00:57;;;;;;;5.90;4.03;;;15.80;99.90;;;;;;5091867;28;20216;-59
2021/08/27 00:03:24;;;;;;;5.00;3.73;;;15.80;99.90;;;;;;5092371;28;20200;-59
2021/08/27 00:05:51;;;;;;;5.53;4.07;;;15.80;99.90;;;;;;5092323;28;20717;-57
2021/08/27 00:08:18;;;;;;;10.50;4.40;;;15.80;99.90;;;;;;5092144;28;20293;-57
2021/08/27 00:10:44;;;;;;;6.10;3.53;;;15.90;99.90;;;;;;5091776;28;20293;-59
2021/08/27 00:13:12;;;;;;;6.23;4.60;;;15.80;99.90;;;;;;5091774;28;20697;-58
2021/08/27 00:15:40;;;;;;;6.40;4.20;;;15.80;99.90;;;;;;5091802;28;20231;-57
2021/08/27 00:18:08;;;;;;;4.87;3.97;;;15.80;99.90;;;;;;5091910;28;20578;-57
2021/08/27 00:20:36;;;;;;;6.40;3.70;;;15.80;99.90;;;;;;5091847;28;20231;-58
2021/08/27 00:23:03;;;;;;;7.67;4.17;;;15.80;99.90;;;;;;5091896;28;20263;-58
2021/08/27 00:25:30;;;;;;;4.83;3.73;;;15.80;99.90;;;;;;5091749;28;20266;-57
2021/08/27 00:27:56;;;;;;;7.07;3.90;;;15.90;99.90;;;;;;5091803;28;20253;-58
2021/08/27 00:30:23;;;;;;;5.53;3.97;;;15.90;99.90;;;;;;5091734;28;20204;-57
2021/08/27 00:32:50;;;;;;;6.67;4.30;;;15.90;99.90;;;;;;5091558;28;20224;-57
2021/08/27 00:35:18;;;;;;;7.20;4.20;;;16.00;99.90;;;;;;5091285;28;20236;-58
2021/08/27 00:37:44;;;;;;;6.77;4.07;;;16.00;99.90;;;;;;5091382;28;20208;-58
2021/08/27 00:40:11;;;;;;;7.40;4.40;;;16.00;99.90;;;;;;5091199;28;20632;-57
2021/08/27 00:42:38;;;;;;;7.27;4.27;;;15.90;99.90;;;;;;5091181;28;20243;-58
2021/08/27 00:45:06;;;;;;;5.80;3.70;;;15.90;99.90;;;;;;5091303;28;20253;-58
2021/08/27 00:47:32;;;;;;;6.67;4.10;;;15.90;99.90;;;;;;5091599;28;20613;-57
2021/08/27 00:49:59;;;;;;;6.20;3.70;;;15.90;99.90;;;;;;5091086;28;20663;-58
2021/08/27 00:52:27;;;;;;;6.67;3.67;;;15.90;99.90;;;;;;5091162;28;20227;-58
2021/08/27 00:54:54;;;;;;;6.43;3.47;;;15.90;99.90;;;;;;5090860;28;20691;-57
2021/08/27 00:57:21;;;;;;;5.57;3.60;;;15.90;99.90;;;;;;5091279;28;20208;-58
2021/08/27 00:59:48;;;;;;;5.10;4.03;;;15.90;99.90;;;;;;5090995;28;20216;-57
2021/08/27 01:02:15;;;;;;;8.77;3.87;;;15.90;99.90;;;;;;5091049;28;20224;-57
2021/08/27 01:04:44;;;;;;;5.90;3.43;;;16.00;99.90;;;;;;5090399;28;20257;-57
2021/08/27 01:07:16;;;;;;;6.60;4.03;;;16.00;99.90;;;;;;5090972;28;20204;-58
2021/08/27 01:09:53;;;;;;;4.87;3.70;;;16.00;99.90;;;;;;5090874;28;20718;-57
2021/08/27 01:12:27;;;;;;;6.83;3.70;;;15.90;99.90;;;;;;5090959;28;20220;-58
2021/08/27 01:15:00;;;;;;;6.07;3.77;;;15.80;99.90;;;;;;5090921;28;20211;-57
2021/08/27 01:17:34;;;;;;;6.20;3.73;;;15.70;99.90;;;;;;5090897;28;20663;-57
2021/08/27 01:20:28;;;;;;;5.60;3.80;;;15.70;99.90;;;;;;5090708;28;20258;-57
2021/08/27 01:23:22;;;;;;;6.50;3.60;;;15.70;99.90;;;;;;5090974;28;20260;-57
2021/08/27 01:25:54;;;;;;;8.20;4.17;;;15.70;99.90;;;;;;5091221;28;20211;-57
2021/08/27 01:28:22;;;;;;;6.83;3.90;;;15.70;99.90;;;;;;5090706;28;20571;-57
2021/08/27 01:31:00;;;;;;;6.03;3.80;;;15.70;99.90;;;;;;5091065;28;20211;-57
2021/08/27 01:33:28;;;;;;;5.43;3.67;;;15.80;99.90;;;;;;5091023;28;20203;-57
2021/08/27 01:36:00;;;;;;;6.50;3.67;;;15.80;99.90;;;;;;5091106;28;20234;-57
2021/08/27 01:38:32;;;;;;;6.20;3.33;;;15.80;99.90;;;;;;5091107;28;20217;-58
2021/08/27 01:40:59;;;;;;;11.00;4.17;;;15.80;99.90;;;;;;5090518;28;20231;-58
2021/08/27 01:43:29;;;;;;;4.80;3.40;;;15.60;99.90;;;;;;5090878;28;20621;-58
2021/08/27 01:46:00;;;;;;;4.50;3.53;;;15.60;99.90;;;;;;5090941;28;20208;-58
2021/08/27 01:48:30;;;;;;;6.27;3.80;;;15.50;99.90;;;;;;5090627;28;20212;-57
2021/08/27 01:50:58;;;;;;;7.80;3.90;;;15.40;99.90;;;;;;5090551;28;20229;-58
2021/08/27 01:53:25;;;;;;;7.03;4.23;;;15.40;99.90;;;;;;5090305;28;20212;-59
2021/08/27 01:55:54;;;;;;;6.23;4.07;;;15.40;99.90;;;;;;5090696;28;20204;-58
2021/08/27 01:58:21;;;;;;;5.30;3.60;;;15.40;99.90;;;;;;5090504;28;20208;-58
2021/08/27 02:00:49;;;;;;;7.93;4.53;;;15.40;99.90;;;;;;5090558;28;20227;-58
2021/08/27 02:03:16;;;;;;;6.07;4.00;;;15.40;99.90;;;;;;5090711;28;20204;-57
2021/08/27 02:05:44;;;;;;;8.67;3.80;;;15.40;99.90;;;;;;5090171;28;20250;-58
2021/08/27 02:08:13;;;;;;;5.60;3.70;;;15.30;99.90;;;;;;5090539;28;20204;-58
2021/08/27 02:10:40;;;;;;;5.63;3.53;;;15.20;99.90;;;;;;5090473;28;20200;-58
2021/08/27 02:13:07;;;;;;;6.30;3.97;;;15.20;99.90;;;;;;5090428;28;20227;-59
2021/08/27 02:15:35;;;;;;;6.83;4.53;;;15.20;99.90;;;;;;5092277;28;20208;-57
2021/08/27 02:18:02;;;;;;;5.43;3.90;;;15.20;99.90;;;;;;5094041;28;20295;-58
2021/08/27 02:20:29;;;;;;;6.43;4.43;;;15.30;99.90;;;;;;5094096;28;20273;-57
2021/08/27 02:22:59;;;;;;;5.90;4.03;;;15.40;99.90;;;;;;5094168;28;20231;-57
2021/08/27 02:25:30;;;;;;;7.67;4.57;;;15.40;99.90;;;;;;5094289;28;20205;-57
2021/08/27 02:27:57;;;;;;;5.93;4.00;;;15.40;99.90;;;;;;5093985;28;20207;-56
2021/08/27 02:30:26;;;;;;;6.20;3.97;;;15.30;99.90;;;;;;5093811;28;20253;-58
2021/08/27 02:32:54;;;;;;;5.83;3.97;;;15.40;99.90;;;;;;5093712;28;20224;-57
2021/08/27 02:35:21;;;;;;;7.20;4.40;;;15.40;99.90;;;;;;5093810;28;20201;-57
2021/08/27 02:37:50;;;;;;;7.27;4.60;;;15.50;99.90;;;;;;5093645;28;20672;-59
2021/08/27 02:40:16;;;;;;;4.97;4.20;;;15.60;99.90;;;;;;5093721;28;20208;-58
2021/08/27 02:42:45;;;;;;;6.97;4.50;;;15.70;99.90;;;;;;5093515;28;20240;-58
2021/08/27 02:45:12;;;;;;;7.23;4.43;;;15.70;99.90;;;;;;5093516;28;20204;-58
2021/08/27 02:47:39;;;;;;;8.37;4.10;;;15.70;99.90;;;;;;5093610;28;20699;-57
2021/08/27 02:50:07;;;;;;;8.43;4.67;;;15.70;99.90;;;;;;5093865;28;20206;-58
2021/08/27 02:52:42;;;;;;;8.10;4.03;;;15.70;99.90;;;;;;5094186;28;20224;-57
2021/08/27 02:55:11;;;;;;;6.00;4.17;;;15.70;99.90;;;;;;5093648;28;20311;-57
2021/08/27 02:57:45;;;;;;;7.33;4.53;;;15.60;99.90;;;;;;5093557;28;20204;-57
2021/08/27 03:00:14;;;;;;;6.33;4.50;;;15.60;99.90;;;;;;5093297;28;20644;-58
2021/08/27 03:02:42;;;;;;;6.73;4.10;;;15.60;99.90;;;;;;5093336;28;20231;-57
2021/08/27 03:05:13;;;;;;;6.33;4.33;;;15.50;99.90;;;;;;5093264;28;20253;-57
2021/08/27 03:07:45;;;;;;;6.67;3.77;;;15.50;99.90;;;;;;5093202;28;20228;-59
2021/08/27 03:10:15;;;;;;;6.67;4.53;;;15.40;99.90;;;;;;5093096;28;20235;-57
2021/08/27 03:12:50;;;;;;;6.53;4.23;;;15.30;99.90;;;;;;5093130;28;20224;-59
2021/08/27 03:15:27;;;;;;;5.53;4.10;;;15.30;99.90;;;;;;5092992;28;20204;-56
2021/08/27 03:17:56;;;;;;;4.97;4.13;;;15.30;99.90;;;;;;5092871;28;20261;-59
2021/08/27 03:20:27;;;;;;;6.07;3.50;;;15.30;99.90;;;;;;5092746;28;20668;-56
2021/08/27 03:22:58;;;;;;;8.07;4.67;;;15.20;99.90;;;;;;5093097;28;20231;-58
2021/08/27 03:25:25;;;;;;;8.10;4.57;;;15.20;99.90;;;;;;5093300;28;20235;-57
2021/08/27 03:27:57;;;;;;;7.00;4.40;;;15.20;99.90;;;;;;5092289;28;20208;-57
2021/08/27 03:30:29;;;;;;;6.50;4.63;;;15.10;99.90;;;;;;5092959;28;20215;-59
2021/08/27 03:32:58;;;;;;;5.43;4.40;;;15.00;99.90;;;;;;5092653;28;20251;-57
2021/08/27 03:35:27;;;;;;;12.10;5.10;;;15.00;99.90;;;;;;5092556;28;20211;-57
2021/08/27 03:37:55;;;;;;;6.17;4.73;;;15.00;99.90;;;;;;5092486;28;20209;-57
2021/08/27 03:40:23;;;;;;;8.43;4.97;;;15.00;99.90;;;;;;5092450;28;20242;-57
2021/08/27 03:42:51;;;;;;;9.50;4.87;;;15.00;99.90;;;;;;5092934;28;20240;-59
2021/08/27 03:45:20;;;;;;;7.97;4.37;;;15.00;99.90;;;;;;5092484;28;20204;-59
2021/08/27 03:47:49;;;;;;;7.77;4.50;;;15.00;99.90;;;;;;5092154;28;20695;-59
2021/08/27 03:50:16;;;;;;;7.57;4.37;;;15.00;99.90;;;;;;5092526;28;20229;-58
2021/08/27 03:52:45;;;;;;;7.00;4.33;;;15.10;99.90;;;;;;5092394;28;20231;-59
2021/08/27 03:55:14;;;;;;;8.57;4.93;;;15.10;99.90;;;;;;5092002;28;20672;-59
2021/08/27 03:57:42;;;;;;;8.10;4.50;;;15.20;99.90;;;;;;5092277;28;20211;-59
2021/08/27 04:00:10;;;;;;;6.83;4.93;;;15.20;99.90;;;;;;5092110;28;20227;-59
2021/08/27 04:02:36;;;;;;;7.17;4.37;;;15.30;99.90;;;;;;5091800;28;20259;-59
2021/08/27 04:05:13;;;;;;;6.67;4.63;;;15.30;99.90;;;;;;5092064;28;20200;-59
2021/08/27 04:07:40;;;;;;;5.70;4.20;;;15.40;99.90;;;;;;5092033;28;20667;-59
2021/08/27 04:10:08;;;;;;;8.53;4.10;;;15.40;99.90;;;;;;5092175;28;20208;-59
2021/08/27 04:12:36;;;;;;;5.47;4.63;;;15.30;99.90;;;;;;5092199;28;20624;-61
2021/08/27 04:15:03;;;;;;;7.60;4.50;;;15.40;99.90;;;;;;5091695;28;20204;-58
2021/08/27 04:17:30;;;;;;;7.90;6.40;;;15.40;99.90;;;;;;5092285;28;20239;-59
2021/08/27 04:19:57;;;;;;;6.37;5.17;;;15.50;99.90;;;;;;5092192;28;20204;-58
2021/08/27 04:22:25;;;;;;;5.97;4.50;;;15.60;99.90;;;;;;5091759;28;20232;-59
2021/08/27 04:24:51;;;;;;;10.13;4.40;;;15.50;99.90;;;;;;5091685;28;20207;-59
2021/08/27 04:27:18;;;;;;;6.77;4.77;;;15.50;99.90;;;;;;5091629;28;20200;-59
2021/08/27 04:29:45;;;;;;;7.63;4.83;;;15.40;99.90;;;;;;5091650;28;20205;-58
2021/08/27 04:32:12;;;;;;;9.00;5.20;;;15.40;99.90;;;;;;5091898;28;20247;-59
2021/08/27 04:34:39;;;;;;;10.97;5.40;;;15.30;99.90;;;;;;5091822;28;20220;-61
2021/08/27 04:37:05;;;;;;;8.87;5.13;;;15.20;99.90;;;;;;5091861;28;20212;-59
2021/08/27 04:39:33;;;;;;;7.17;5.47;;;15.10;99.90;;;;;;5090559;28;20672;-59
2021/08/27 04:42:02;;;;;;;8.40;4.97;;;15.10;99.90;;;;;;5091309;28;20244;-60
2021/08/27 04:44:28;;;;;;;8.87;5.07;;;15.00;99.90;;;;;;5091521;28;20215;-60
2021/08/27 04:46:55;;;;;;;6.60;4.80;;;15.10;99.90;;;;;;5091502;28;20208;-60
2021/08/27 04:49:24;;;;;;;8.57;5.03;;;15.10;99.90;;;;;;5091382;28;20257;-60
2021/08/27 04:51:51;;;;;;;9.57;5.47;;;15.10;99.90;;;;;;5091605;28;20613;-60
2021/08/27 04:54:18;;;;;;;10.10;4.87;;;15.20;99.90;;;;;;5091315;28;20205;-59
2021/08/27 04:56:46;;;;;;;9.07;5.70;;;15.30;99.90;;;;;;5091157;28;20208;-60
2021/08/27 04:59:12;;;;;;;9.47;5.77;;;15.40;99.90;;;;;;5091248;28;20200;-59
2021/08/27 05:01:39;;;;;;;10.33;6.57;;;15.40;99.90;;;;;;5091277;28;20306;-60
2021/08/27 05:04:06;;;;;;;10.97;7.00;;;15.40;99.90;;;;;;5091043;28;20227;-60
2021/08/27 05:06:32;;;;;;;8.27;5.53;;;15.50;99.90;;;;;;5090981;28;20624;-60
2021/08/27 05:08:59;;;;;;;10.83;5.30;;;15.50;99.90;;;;;;5090889;28;20208;-59
2021/08/27 05:11:25;;;;;;;12.53;8.20;;;15.40;99.90;;;;;;5090640;28;20310;-59
2021/08/27 05:13:53;;;;;;;7.33;5.17;;;15.40;99.90;;;;;;5090899;28;20265;-60
2021/08/27 05:16:20;;;;;;;10.70;5.53;;;15.50;99.90;;;;;;5091051;28;20200;-59
2021/08/27 05:18:47;;;;;;;8.93;5.70;;;15.60;99.90;;;;;;5090947;28;20215;-59
2021/08/27 05:21:15;;;;;;;10.23;7.17;;;15.70;99.90;;;;;;5091296;28;20252;-59
2021/08/27 05:23:42;;;;;;;9.37;6.23;;;15.80;99.90;;;;;;5090736;28;20204;-59
2021/08/27 05:26:09;;;;;;;10.17;5.70;;;15.90;99.90;;;;;;5090995;28;20208;-60
2021/08/27 05:28:36;;;;;;;9.07;4.70;;;15.90;99.90;;;;;;5090881;28;20208;-58
2021/08/27 05:31:04;;;;;;;8.97;6.40;;;16.00;99.90;;;;;;5090759;28;20230;-60
2021/08/27 05:33:31;;;;;;;9.57;5.27;;;16.10;99.90;;;;;;5090963;28;20234;-60
2021/08/27 05:35:57;;;;;;;9.00;5.70;;;16.10;99.90;;;;;;5090729;28;20212;-60
2021/08/27 05:38:24;;;;;;;8.27;5.77;;;16.00;99.90;;;;;;5090605;28;20205;-57
2021/08/27 05:40:51;;;;;;;7.17;5.17;;;16.10;99.90;;;;;;5090645;28;20215;-60
2021/08/27 05:43:17;;;;;;;6.67;5.27;;;16.20;99.90;;;;;;5091029;28;20224;-59
2021/08/27 05:45:44;;;;;;;11.63;5.50;;;16.30;99.90;;;;;;5090728;28;20277;-59
2021/08/27 05:48:12;;;;;;;6.67;5.13;;;16.00;99.90;;;;;;5090828;28;20235;-59
2021/08/27 05:50:39;;;;;;;6.67;5.27;;;15.80;99.90;;;;;;5093160;28;20245;-59
2021/08/27 05:53:05;;;;;;;7.13;5.03;;;15.80;99.90;;;;;;5094928;28;20277;-59
2021/08/27 05:55:32;;;;;;;16.00;9.73;;;15.80;99.90;;;;;;5094569;28;20211;-59
2021/08/27 05:58:00;;;;;;;7.77;5.13;;;15.80;99.90;;;;;;5094640;28;20616;-59
2021/08/27 06:00:27;;;;;;;9.90;5.00;;;15.90;99.90;;;;;;5094760;28;20207;-58
2021/08/27 06:02:54;;;;;;;7.13;4.97;;;15.80;99.90;;;;;;5094383;28;20220;-59
2021/08/27 06:05:22;;;;;;;8.27;4.93;;;15.80;99.90;;;;;;5094160;28;20582;-58
2021/08/27 06:07:48;;;;;;;7.57;5.00;;;15.70;99.90;;;;;;5094367;28;20204;-59
2021/08/27 06:10:15;;;;;;;6.80;4.90;;;15.70;99.90;;;;;;5094590;28;20208;-60
2021/08/27 06:12:43;;;;;;;8.43;4.40;;;16.10;99.90;;;;;;5094256;28;20231;-59
2021/08/27 06:15:12;;;;;;;5.82;3.95;;;16.80;99.90;;;;;;5094238;28;20240;-59
2021/08/27 06:17:38;;;;;;;6.72;3.53;;;17.90;99.90;;;;;;5094281;28;20211;-59
2021/08/27 06:20:06;;;;;;;7.18;4.93;;;18.70;99.90;;;;;;5094081;28;20204;-59
2021/08/27 06:22:35;;;;;;;6.32;3.78;;;18.90;99.90;;;;;;5094070;28;20691;-59
2021/08/27 06:25:02;;;;;;;6.63;3.90;;;18.80;99.90;;;;;;5093873;28;20751;-59
2021/08/27 06:27:28;;;;;;;7.45;3.50;;;18.90;99.90;;;;;;5094049;28;20648;-60
2021/08/27 06:29:55;;;;;;;6.43;3.78;;;19.30;99.90;;;;;;5094000;28;20208;-58
2021/08/27 06:32:22;;;;;;;5.07;2.65;;;20.30;99.90;;;;;;5093805;28;20625;-59
2021/08/27 06:34:49;;;;;;;4.53;3.15;;;21.20;99.90;;;;;;5093745;28;20663;-59
2021/08/27 06:37:15;;;;;;;5.82;2.85;;;21.10;99.90;;;;;;5094037;28;20292;-60
2021/08/27 06:39:43;;;;;;;6.25;3.05;;;21.00;99.90;;;;;;5093631;28;20613;-59
2021/08/27 06:42:10;;;;;;;4.70;3.20;;;20.90;99.90;;;;;;5093687;28;20232;-59
2021/08/27 06:44:37;;;;;;;7.07;4.00;;;20.50;99.90;;;;;;5093628;28;20212;-58
2021/08/27 06:47:04;;;;;;;5.90;3.22;;;20.10;99.90;;;;;;5093730;28;20737;-59
2021/08/27 06:49:30;;;;;;;4.97;3.22;;;20.40;99.90;;;;;;5093766;28;20207;-59
2021/08/27 06:51:57;;;;;;;6.65;3.13;;;20.80;99.90;;;;;;5093710;28;20227;-59
2021/08/27 06:54:24;;;;;;;5.78;3.58;;;20.60;99.90;;;;;;5093634;28;20216;-60
2021/08/27 06:56:52;;;;;;;7.28;3.40;;;20.50;99.90;;;;;;5093652;28;20207;-60
2021/08/27 06:59:19;;;;;;;9.95;3.35;;;20.40;99.90;;;;;;5093612;28;20208;-59
2021/08/27 07:01:45;;;;;;;7.07;3.55;;;20.30;99.90;;;;;;5092332;28;20306;-59
2021/08/27 07:04:12;;;;;;;5.55;2.95;;;20.20;99.90;;;;;;5093311;28;20215;-59
2021/08/27 07:06:39;;;;;;;5.63;3.08;;;19.90;99.90;;;;;;5093688;28;20209;-59
2021/08/27 07:09:05;;;;;;;5.35;2.70;;;19.90;99.90;;;;;;5093768;28;20625;-60
2021/08/27 07:11:32;;;;;;;6.82;2.95;;;20.20;99.90;;;;;;5093413;28;20247;-59
2021/08/27 07:14:03;;;;;;;6.40;3.33;;;20.70;99.90;;;;;;5093133;28;20208;-60
2021/08/27 07:16:29;;;;;;;5.68;2.92;;;20.90;99.90;;;;;;5093132;28;20679;-59
2021/08/27 07:18:56;;;;;;;4.88;2.78;;;20.90;99.90;;;;;;5093124;28;20212;-59
2021/08/27 07:21:23;;;;;;;5.45;3.00;;;21.10;99.90;;;;;;5093059;28;20231;-59
2021/08/27 07:23:50;;;;;;;4.03;2.50;;;21.40;99.90;;;;;;5092819;28;20224;-59
2021/08/27 07:26:16;;;;;;;5.20;2.97;;;21.20;99.90;;;;;;5092988;28;20212;-59
2021/08/27 07:28:43;;;;;;;3.28;2.40;;;21.00;99.90;;;;;;5092710;28;20204;-59
2021/08/27 07:31:11;;;;;;;5.00;3.13;;;21.20;99.90;;;;;;5092716;28;20724;-59
2021/08/27 07:33:38;;;;;;;6.38;2.40;;;21.40;99.90;;;;;;5092782;28;20208;-60
2021/08/27 07:36:05;;;;;;;8.23;2.53;;;21.20;99.90;;;;;;5092789;28;20212;-59
2021/08/27 07:38:33;;;;;;;5.38;2.50;;;20.80;99.90;;;;;;5092548;28;20664;-59
2021/08/27 07:41:00;;;;;;;5.63;2.45;;;20.60;99.90;;;;;;5092553;28;20242;-58
2021/08/27 07:43:27;;;;;;;5.93;2.80;;;20.20;99.90;;;;;;5092416;28;20216;-59
2021/08/27 07:45:57;;;;;;;3.60;2.65;;;19.90;99.90;;;;;;5092461;28;20211;-59
2021/08/27 07:48:25;;;;;;;5.82;2.58;;;19.70;99.90;;;;;;5092422;28;20333;-59
2021/08/27 07:50:52;;;;;;;3.58;2.55;;;19.80;99.90;;;;;;5092454;28;20238;-59
2021/08/27 07:53:19;;;;;;;3.65;2.40;;;20.20;99.90;;;;;;5092386;28;20664;-59
2021/08/27 07:55:46;;;;;;;5.50;2.30;;;21.10;99.90;;;;;;5092211;28;20207;-59
2021/08/27 07:58:13;;;;;;;3.58;1.90;;;22.20;99.90;;;;;;5092526;28;20672;-60
2021/08/27 08:00:40;;;;;;;4.93;1.67;;;24.00;99.90;;;;;;5092591;28;20204;-60
2021/08/27 08:03:07;;;;;;;4.57;1.50;;;25.10;99.90;;;;;;5092230;28;20247;-59
2021/08/27 08:05:34;;;;;;;5.50;1.88;;;24.70;99.90;;;;;;5092203;28;20264;-59
2021/08/27 08:08:02;;;;;;;4.07;1.70;;;23.50;99.90;;;;;;5092521;28;20261;-60
2021/08/27 08:10:29;;;;;;;3.13;1.65;;;22.50;99.90;;;;;;5092201;28;20204;-59
2021/08/27 08:12:55;;;;;;;3.20;1.83;;;23.10;99.90;;;;;;5092158;28;20220;-59
2021/08/27 08:15:23;;;;;;;7.13;1.88;;;24.40;99.90;;;;;;5092228;28;20578;-60
2021/08/27 08:17:50;;;;;;;6.53;1.63;;;25.10;99.90;;;;;;5092028;28;20211;-60
2021/08/27 08:20:16;;;;;;;3.58;1.67;;;25.00;99.90;;;;;;5092676;28;20212;-60
2021/08/27 08:22:44;;;;;;;3.08;1.73;;;24.80;99.90;;;;;;5091758;28;20232;-60
2021/08/27 08:25:11;;;;;;;5.30;1.63;;;24.10;99.90;;;;;;5091512;28;20215;-60
2021/08/27 08:27:38;;;;;;;5.75;1.77;;;23.40;99.90;;;;;;5091999;28;20204;-64
2021/08/27 08:30:06;;;;;;;1.77;1.30;;;22.60;99.90;;;;;;5091928;28;20212;-62
2021/08/27 08:32:33;;;;;;;2.72;1.45;;;22.20;99.90;;;;;;5091665;28;20715;-59
2021/08/27 08:34:59;;;;;;;2.97;1.42;;;21.60;99.90;;;;;;5089517;28;20200;-61
2021/08/27 08:37:26;;;;;;;5.93;1.60;;;20.70;99.90;;;;;;5091484;28;20211;-60
2021/08/27 08:39:54;;;;;;;3.50;1.30;;;20.00;99.90;;;;;;5091700;28;20208;-59
2021/08/27 08:42:22;;;;;;;5.13;1.73;;;19.60;99.90;;;;;;5091127;28;20706;-64
2021/08/27 08:44:48;;;;;;;5.00;1.42;;;19.60;99.90;;;;;;5091007;28;20591;-65
2021/08/27 08:47:17;;;;;;;2.13;1.48;;;19.80;99.90;;;;;;5091269;28;20668;-63
2021/08/27 08:49:47;;;;;;;2.58;1.27;;;20.20;99.90;;;;;;5091316;28;20204;-60
2021/08/27 08:52:15;;;;;;;4.35;1.55;;;20.50;99.90;;;;;;5091107;28;20228;-65
2021/08/27 08:54:43;;;;;;;3.92;1.52;;;21.00;99.90;;;;;;5091460;28;20208;-61
2021/08/27 08:57:11;;;;;;;4.07;1.95;;;21.40;99.90;;;;;;5091593;28;20208;-60
2021/08/27 08:59:38;;;;;;;3.97;2.00;;;21.60;99.90;;;;;;5090972;28;20206;-61
2021/08/27 09:02:07;;;;;;;2.88;1.50;;;21.50;99.90;;;;;;5091427;28;20229;-60
2021/08/27 09:04:34;;;;;;;5.13;1.52;;;21.10;99.90;;;;;;5091088;28;20204;-61
2021/08/27 09:07:01;;;;;;;2.10;1.20;;;20.50;99.90;;;;;;5091645;28;20212;-60
2021/08/27 09:09:31;;;;;;;6.32;1.50;;;20.10;99.90;;;;;;5091572;28;20204;-61
2021/08/27 09:11:58;;;;;;;4.47;1.60;;;19.80;99.90;;;;;;5091246;28;20236;-61
2021/08/27 09:14:30;;;;;;;3.60;1.38;;;19.60;99.90;;;;;;5090612;28;20675;-61
2021/08/27 09:17:03;;;;;;;3.28;1.30;;;19.40;99.90;;;;;;5090899;28;20211;-61
2021/08/27 09:19:51;;;;;;;3.95;1.50;;;19.40;99.90;;;;;;5090991;28;20208;-60
2021/08/27 09:22:18;;;;;;;1.38;1.05;;;19.40;99.90;;;;;;5090829;28;20234;-60
2021/08/27 09:24:45;;;;;;;4.95;1.60;;;19.60;99.90;;;;;;5090411;28;20211;-61
2021/08/27 09:27:12;;;;;;;4.75;1.70;;;19.60;99.90;;;;;;5090749;28;20870;-61
2021/08/27 09:29:42;;;;;;;3.30;1.35;;;19.80;99.90;;;;;;5090554;28;20204;-61
2021/08/27 09:32:22;;;;;;;3.75;1.70;;;20.10;99.90;;;;;;5090954;28;20224;-61
2021/08/27 09:35:00;;;;;;;4.75;1.48;;;20.00;99.90;;;;;;5091012;28;20294;-61
2021/08/27 09:37:36;;;;;;;3.90;1.50;;;20.10;99.90;;;;;;5091269;28;20208;-60
2021/08/27 09:40:05;;;;;;;10.75;2.08;;;19.90;99.90;;;;;;5090929;28;20686;-61
2021/08/27 09:42:37;;;;;;;7.13;2.78;;;19.80;99.90;;;;;;5113996;22;20220;-62
2021/08/27 09:45:06;;;;;;;3.22;1.58;;;19.80;99.90;;;;;;5091143;28;20204;-61
2021/08/27 09:47:33;;;;;;;5.22;1.20;;;20.10;99.90;;;;;;5090719;28;20603;-61
2021/08/27 09:50:20;;;;;;;3.97;1.30;;;20.00;99.90;;;;;;5087903;28;20211;-65
2021/08/27 09:52:57;;;;;;;6.32;1.58;;;19.80;99.90;;;;;;5090136;28;20270;-65
2021/08/27 09:55:24;;;;;;;3.72;1.42;;;19.90;99.90;;;;;;5090173;28;20206;-65
2021/08/27 09:57:52;;;;;;;2.70;1.70;;;19.90;99.90;;;;;;5090279;28;20287;-65
2021/08/27 10:00:21;;;;;;;2.47;1.38;;;20.20;99.90;;;;;;5090655;28;20216;-65
2021/08/27 10:02:48;;;;;;;5.20;1.67;;;20.20;99.90;;;;;;5089773;28;20220;-65
2021/08/27 10:05:16;;;;;;;4.32;1.33;;;20.40;99.90;;;;;;5090607;28;20215;-65
2021/08/27 10:07:43;;;;;;;5.20;2.03;;;20.70;99.90;;;;;;5090180;28;20212;-65
2021/08/27 10:10:11;;;;;;;3.67;1.40;;;21.20;99.90;;;;;;5090289;28;20204;-65
2021/08/27 10:12:40;;;;;;;5.65;1.75;;;21.70;99.90;;;;;;5089953;28;20715;-65
2021/08/27 10:15:08;;;;;;;3.72;1.58;;;22.00;99.90;;;;;;5089574;28;20604;-65
2021/08/27 10:17:38;;;;;;;4.10;1.70;;;22.20;99.90;;;;;;5089787;28;20213;-65
2021/08/27 10:20:06;;;;;;;8.80;2.20;;;22.20;99.90;;;;;;5090280;28;20208;-66
2021/08/27 10:22:32;;;;;;;9.57;3.70;;;22.00;99.90;;;;;;5089371;28;20227;-65
2021/08/27 10:25:05;;;;;;;4.38;1.90;;;21.90;99.90;;;;;;5089811;28;20200;-65
2021/08/27 10:27:32;;;;;;;5.88;1.80;;;22.20;99.90;;;;;;5089810;28;20239;-69
2021/08/27 10:29:59;;;;;;;3.30;1.52;;;22.80;99.90;;;;;;5089632;28;20236;-65
2021/08/27 10:32:48;;;;;;;5.63;1.60;;;23.40;99.90;;;;;;5090129;28;20274;-70
2021/08/27 10:35:47;;;;;;;4.65;1.58;;;23.80;99.90;;;;;;5090091;28;20239;-68
2021/08/27 10:38:44;;;;;;;8.02;3.40;;;23.60;99.90;;;;;;5093110;28;20205;-67
2021/08/27 10:41:14;;;;;;;2.67;1.45;;;23.00;98.50;;;;;;5094504;28;20215;-64
2021/08/27 10:43:57;;;;;;;3.35;1.38;;;22.40;98.90;;;;;;5094006;28;20369;-65
2021/08/27 10:46:58;;;;;;;8.40;1.83;;;22.20;99.10;;;;;;5094086;28;20232;-63
2021/08/27 10:49:57;;;;;;;6.50;1.92;;;22.00;99.40;;;;;;5093195;28;20215;-64
2021/08/27 10:52:27;;;;;;;3.28;1.50;;;21.80;99.90;;;;;;5093817;28;20256;-64
2021/08/27 10:55:15;;;;;;;5.40;2.08;;;22.10;99.90;;;;;;5093925;28;20207;-64
2021/08/27 10:57:50;;;;;;;4.55;1.67;;;22.30;99.60;;;;;;5093689;28;20671;-64
2021/08/27 11:00:41;;;;;;;3.15;1.40;;;22.60;99.60;;;;;;5093746;28;20204;-64
2021/08/27 11:03:09;;;;;;;4.00;1.35;;;22.60;97.90;;;;;;5093406;28;20304;-63
2021/08/27 11:05:43;;;;;;;5.15;1.70;;;22.10;97.30;;;;;;5093371;28;20220;-64
2021/08/27 11:08:13;;;;;;;3.70;1.70;;;21.50;97.80;;;;;;5093478;28;20235;-64
2021/08/27 11:10:42;;;;;;;3.85;1.60;;;21.40;99.30;;;;;;5093631;28;20216;-64
2021/08/27 11:13:15;;;;;;;6.72;1.50;;;21.30;99.90;;;;;;5093230;28;20224;-63
2021/08/27 11:15:43;;;;;;;3.15;1.75;;;21.40;99.90;;;;;;5092798;28;20219;-64
2021/08/27 11:18:24;;;;;;;2.78;1.80;;;21.50;99.90;;;;;;5093294;28;20204;-64
2021/08/27 11:20:54;;;;;;;4.10;1.88;;;21.60;99.90;;;;;;5093196;28;20295;-63
2021/08/27 11:23:21;;;;;;;4.15;1.73;;;21.70;99.90;;;;;;5093507;28;20228;-64
2021/08/27 11:26:08;;;;;;;5.07;1.85;;;21.70;99.90;;;;;;5092994;28;20219;-63
2021/08/27 11:28:35;;;;;;;6.07;2.55;;;21.70;99.90;;;;;;5087874;28;20235;-63
2021/08/27 11:31:05;;;;;;;5.95;2.10;;;21.70;99.90;;;;;;5092801;28;20253;-64
2021/08/27 11:33:52;;;;;;;6.82;2.22;;;21.90;99.90;;;;;;5092758;28;20224;-63
2021/08/27 11:36:22;;;;;;;6.03;1.60;;;22.00;99.90;;;;;;5092702;28;20250;-64
2021/08/27 11:38:57;;;;;;;5.55;3.35;;;22.20;99.90;;;;;;5092646;28;20207;-63
2021/08/27 11:41:25;;;;;;;3.58;1.67;;;22.60;99.90;;;;;;5092561;28;20231;-64
2021/08/27 11:44:07;;;;;;;4.57;1.92;;;22.80;98.60;;;;;;5092415;28;20231;-64
2021/08/27 11:46:35;;;;;;;7.57;1.90;;;23.10;98.00;;;;;;5092883;28;20219;-64
2021/08/27 11:49:11;;;;;;;5.32;1.77;;;23.40;98.20;;;;;;5091889;28;20548;-64
2021/08/27 11:51:46;;;;;;;3.88;1.50;;;23.70;97.80;;;;;;5092527;28;20207;-65
2021/08/27 11:54:17;;;;;;;2.55;1.50;;;23.80;97.40;;;;;;5092499;28;20207;-64
2021/08/27 11:56:49;;;;;;;2.72;1.50;;;23.70;95.90;;;;;;5092398;28;20208;-64
2021/08/27 11:59:21;;;;;;;2.95;1.52;;;23.50;96.90;;;;;;5092145;28;20215;-65
2021/08/27 12:01:47;;;;;;;4.30;1.65;;;23.50;97.70;;;;;;5092378;28;20220;-64
2021/08/27 12:04:23;;;;;;;2.00;1.25;;;23.50;96.50;;;;;;5091896;28;20711;-64
2021/08/27 12:07:04;;;;;;;6.85;1.67;;;23.40;96.50;;;;;;5092398;28;20231;-64
2021/08/27 12:09:31;;;;;;;3.60;1.80;;;23.20;96.40;;;;;;5092257;28;20215;-64
2021/08/27 12:11:57;;;;;;;4.75;1.88;;;23.00;97.30;;;;;;5091938;28;20228;-64
2021/08/27 12:14:48;;;;;;;6.03;1.80;;;22.90;98.10;;;;;;5092599;28;20204;-64
2021/08/27 12:17:20;;;;;;;6.05;3.28;;;23.00;98.00;;;;;;5092566;28;20728;-64
2021/08/27 12:19:48;;;;;;;3.85;2.10;;;23.00;97.70;;;;;;5091919;28;20205;-64
2021/08/27 12:22:18;;;;;;;5.88;2.10;;;23.00;97.40;;;;;;5091959;28;20256;-64
2021/08/27 12:24:46;;;;;;;4.05;1.73;;;23.00;97.20;;;;;;5091112;28;20691;-64
2021/08/27 12:27:14;;;;;;;7.30;1.92;;;23.10;97.90;;;;;;5091926;28;20200;-64
2021/08/27 12:29:41;;;;;;;4.72;1.45;;;23.30;97.80;;;;;;5091869;28;20196;-64
2021/08/27 12:32:12;;;;;;;1.88;1.42;;;23.40;96.10;;;;;;5092095;28;20251;-64
2021/08/27 12:34:40;;;;;;;5.80;1.73;;;23.50;96.30;;;;;;5091504;28;20232;-64
2021/08/27 12:37:07;;;;;;;8.68;2.00;;;23.60;97.20;;;;;;5091568;28;20668;-63
2021/08/27 12:39:35;;;;;;;4.85;1.90;;;23.50;97.80;;;;;;5091014;28;20668;-63
2021/08/27 12:42:17;;;;;;;2.97;1.50;;;23.00;98.50;;;;;;5090973;28;20239;-64
2021/08/27 12:45:01;;;;;;;7.20;1.98;;;22.70;98.50;;;;;;5090481;28;20608;-63
2021/08/27 12:47:39;;;;;;;2.35;1.45;;;22.50;97.80;;;;;;5091121;28;20211;-64
2021/08/27 12:50:10;;;;;;;3.65;1.67;;;22.20;98.40;;;;;;5091139;28;20222;-64
2021/08/27 12:52:37;;;;;;;4.03;1.65;;;21.90;98.60;;;;;;5090982;28;20220;-64
2021/08/27 12:55:19;;;;;;;6.70;2.33;;;21.70;98.60;;;;;;5090714;28;20204;-64
2021/08/27 12:57:47;;;;;;;3.90;1.50;;;21.50;99.20;;;;;;5090776;28;20676;-63